South Boardman, MI (49680)

11:01 AM EDT on May 30, 2015 (GMT -0400)
MTSO OBSERVATORY | | Change Station
CLOSE
Current Station
Personal Weather Station
Location: FIFE LAKE, MI
Elevation: 1175 ft
Nearby Weather Stations

Elev 1175 ft 44.58 °N, 85.17 °W | Updated 8 seconds ago

Rain
Rain
51.1 °F
Feels Like 51.1 °F
N
3.5
Wind Variable Wind from NNW
Gusts 3.5 mph

Today
High -- | Low -- °F
--% Chance of Precip.
Yesterday
High -- | Low -- °F
Precip. -- in
6:00 AM 9:17 PM
Waxing Gibbous, 90% visible
Pressure 30.08 in
Visibility 10.0 miles
Clouds Mostly Cloudy 900 ft
Mostly Cloudy 4800 ft
Overcast 5500 ft
Dew Point 48 °F
Humidity 88%
Rainfall 0.25 in
Snow Depth Not available.
UV 2 out of 12
Pollen 4.30 out of 12
Air Quality Not available.
Flu Activity Sporadic
METAR KTVC 301453Z 35006KT 10SM -RA BKN009 BKN048 OVC055 09/08 A3008 RMK AO2 SLP185 P0002 60012 T00940083 51028

More Conditions Fewer Conditions

Pressure 30.08 in
Visibility 10.0 miles
Clouds Mostly Cloudy 900 ft
Mostly Cloudy 4800 ft
Overcast 5500 ft
Dew Point 48 °F
Humidity 88%
Rainfall 0.25 in
Snow Depth Not available.
UV 2 out of 12
Pollen 4.30 out of 12
Air Quality Not available.
Flu Activity Sporadic
METAR KTVC 301453Z 35006KT 10SM -RA BKN009 BKN048 OVC055 09/08 A3008 RMK AO2 SLP185 P0002 60012 T00940083 51028

More Conditions Fewer Conditions

Nowcast | as of 11:00 am EDT on May 30, 2015

At 12 PM...rain. Temperature 50. North winds 10 mph. At 2 PM...cloudy. Chance of rain. Temperature 50. North winds 13 mph. At 4 PM...mostly cloudy. Chance of rain. Temperature 54. North winds 15 mph. At 6 PM...mostly cloudy. Chance of rain. Temperature 54. North winds 15 mph.

×

10-Day Weather Forecast

Almanac

Astronomy

May. 30, 2015 Rise Set
Actual Time
Civil Twilight
Nautical Twilight
Astronomical Twilight
Moon
Length of Visible Light
Length of Day
Tomorrow will be .
, % of the Moon is Illuminated

Today's Extremes

State Highs State Lows

Community

WunderPhotos

Upload Photos

1,825,541 photos uploaded!

WunderBlogs® & News

Nearby

Air Quality

  Air Quality AQ Index Pollutant
Not available.

Snow Depth

Station Depth Elevation

Earthquake Activity

City Distance Mag. Time & Date
Minimum magnitude displayed is 2.5.

Coastal Water Temperatures

Place Temperature

Stations

Nearby Weather Stations

Station Location Temp. Windchill Dew Point Humidity Wind Precip. Elev Updated Type